sensor_id;sensor_type;location;lat;lon;timestamp;P1;durP1;ratioP1;P2;durP2;ratioP2
69551;SDS011;63774;45.292;11.784;2023-12-28T00:00:39;28.10;;;20.80;;
69551;SDS011;63774;45.292;11.784;2023-12-28T00:03:05;28.20;;;21.10;;
69551;SDS011;63774;45.292;11.784;2023-12-28T00:05:30;27.80;;;19.70;;
69551;SDS011;63774;45.292;11.784;2023-12-28T00:07:55;29.40;;;21.00;;
69551;SDS011;63774;45.292;11.784;2023-12-28T00:10:23;29.80;;;21.50;;
69551;SDS011;63774;45.292;11.784;2023-12-28T00:12:48;29.10;;;20.60;;
69551;SDS011;63774;45.292;11.784;2023-12-28T00:15:14;29.60;;;20.40;;
69551;SDS011;63774;45.292;11.784;2023-12-28T00:17:39;26.40;;;20.30;;
69551;SDS011;63774;45.292;11.784;2023-12-28T00:20:04;27.90;;;20.80;;
69551;SDS011;63774;45.292;11.784;2023-12-28T00:22:30;27.60;;;20.30;;
69551;SDS011;63774;45.292;11.784;2023-12-28T00:24:55;26.40;;;20.80;;
69551;SDS011;63774;45.292;11.784;2023-12-28T00:27:21;27.20;;;20.80;;
69551;SDS011;63774;45.292;11.784;2023-12-28T00:29:46;28.20;;;20.90;;
69551;SDS011;63774;45.292;11.784;2023-12-28T00:32:11;28.70;;;20.90;;
69551;SDS011;63774;45.292;11.784;2023-12-28T00:34:37;28.40;;;20.60;;
69551;SDS011;63774;45.292;11.784;2023-12-28T00:37:02;31.70;;;21.60;;
69551;SDS011;63774;45.292;11.784;2023-12-28T00:39:27;31.40;;;21.40;;
69551;SDS011;63774;45.292;11.784;2023-12-28T00:41:53;29.70;;;21.20;;
69551;SDS011;63774;45.292;11.784;2023-12-28T00:44:18;29.30;;;21.70;;
69551;SDS011;63774;45.292;11.784;2023-12-28T00:46:43;27.80;;;21.00;;
69551;SDS011;63774;45.292;11.784;2023-12-28T00:49:09;30.10;;;20.60;;
69551;SDS011;63774;45.292;11.784;2023-12-28T00:51:34;30.80;;;21.30;;
69551;SDS011;63774;45.292;11.784;2023-12-28T00:53:59;29.30;;;20.90;;
69551;SDS011;63774;45.292;11.784;2023-12-28T00:56:24;28.80;;;20.60;;
69551;SDS011;63774;45.292;11.784;2023-12-28T00:58:50;26.80;;;20.30;;
69551;SDS011;63774;45.292;11.784;2023-12-28T01:01:15;28.80;;;21.40;;
69551;SDS011;63774;45.292;11.784;2023-12-28T01:03:40;27.70;;;21.40;;
69551;SDS011;63774;45.292;11.784;2023-12-28T01:06:08;26.90;;;20.50;;
69551;SDS011;63774;45.292;11.784;2023-12-28T01:08:33;28.40;;;21.00;;
69551;SDS011;63774;45.292;11.784;2023-12-28T01:10:59;29.60;;;21.30;;
69551;SDS011;63774;45.292;11.784;2023-12-28T01:13:24;29.30;;;21.40;;
69551;SDS011;63774;45.292;11.784;2023-12-28T01:15:50;27.50;;;21.30;;
69551;SDS011;63774;45.292;11.784;2023-12-28T01:18:15;29.00;;;21.10;;
69551;SDS011;63774;45.292;11.784;2023-12-28T01:20:40;32.80;;;23.20;;
69551;SDS011;63774;45.292;11.784;2023-12-28T01:23:05;27.60;;;20.80;;
69551;SDS011;63774;45.292;11.784;2023-12-28T01:25:34;28.40;;;20.30;;
69551;SDS011;63774;45.292;11.784;2023-12-28T01:28:00;26.50;;;20.20;;
69551;SDS011;63774;45.292;11.784;2023-12-28T01:30:26;29.00;;;20.60;;
69551;SDS011;63774;45.292;11.784;2023-12-28T01:32:51;27.20;;;20.60;;
69551;SDS011;63774;45.292;11.784;2023-12-28T01:35:16;30.00;;;21.80;;
69551;SDS011;63774;45.292;11.784;2023-12-28T01:37:42;29.00;;;21.40;;
69551;SDS011;63774;45.292;11.784;2023-12-28T01:40:07;27.70;;;21.10;;
69551;SDS011;63774;45.292;11.784;2023-12-28T01:42:33;28.50;;;20.30;;
69551;SDS011;63774;45.292;11.784;2023-12-28T01:44:58;29.40;;;20.90;;
69551;SDS011;63774;45.292;11.784;2023-12-28T01:47:26;29.40;;;21.30;;
69551;SDS011;63774;45.292;11.784;2023-12-28T01:49:52;27.20;;;20.40;;
69551;SDS011;63774;45.292;11.784;2023-12-28T01:52:18;30.60;;;21.90;;
69551;SDS011;63774;45.292;11.784;2023-12-28T01:54:44;28.20;;;21.00;;
69551;SDS011;63774;45.292;11.784;2023-12-28T01:57:09;29.80;;;20.60;;
69551;SDS011;63774;45.292;11.784;2023-12-28T01:59:35;27.60;;;21.30;;
69551;SDS011;63774;45.292;11.784;2023-12-28T02:02:01;28.30;;;21.00;;
69551;SDS011;63774;45.292;11.784;2023-12-28T02:04:26;29.10;;;20.80;;
69551;SDS011;63774;45.292;11.784;2023-12-28T02:06:57;27.50;;;20.50;;
69551;SDS011;63774;45.292;11.784;2023-12-28T02:09:22;27.80;;;21.30;;
69551;SDS011;63774;45.292;11.784;2023-12-28T02:11:48;28.10;;;20.80;;
69551;SDS011;63774;45.292;11.784;2023-12-28T02:14:13;31.50;;;21.20;;
69551;SDS011;63774;45.292;11.784;2023-12-28T02:16:40;27.70;;;20.70;;
69551;SDS011;63774;45.292;11.784;2023-12-28T02:19:16;29.60;;;21.10;;
69551;SDS011;63774;45.292;11.784;2023-12-28T02:21:43;27.60;;;21.30;;
69551;SDS011;63774;45.292;11.784;2023-12-28T02:24:12;28.70;;;21.70;;
69551;SDS011;63774;45.292;11.784;2023-12-28T02:26:37;29.70;;;21.10;;
69551;SDS011;63774;45.292;11.784;2023-12-28T02:29:02;27.90;;;20.60;;
69551;SDS011;63774;45.292;11.784;2023-12-28T02:31:30;29.60;;;20.20;;
69551;SDS011;63774;45.292;11.784;2023-12-28T02:34:04;26.90;;;20.90;;
69551;SDS011;63774;45.292;11.784;2023-12-28T02:36:31;27.50;;;20.20;;
69551;SDS011;63774;45.292;11.784;2023-12-28T02:38:58;29.20;;;21.30;;
69551;SDS011;63774;45.292;11.784;2023-12-28T02:41:24;28.70;;;20.90;;
69551;SDS011;63774;45.292;11.784;2023-12-28T02:43:50;27.60;;;20.10;;
69551;SDS011;63774;45.292;11.784;2023-12-28T02:46:16;28.00;;;20.70;;
69551;SDS011;63774;45.292;11.784;2023-12-28T02:48:41;26.80;;;20.60;;
69551;SDS011;63774;45.292;11.784;2023-12-28T02:51:07;27.10;;;20.80;;
69551;SDS011;63774;45.292;11.784;2023-12-28T02:53:32;28.70;;;21.00;;
69551;SDS011;63774;45.292;11.784;2023-12-28T02:55:57;27.80;;;20.90;;
69551;SDS011;63774;45.292;11.784;2023-12-28T02:58:22;28.80;;;21.20;;
69551;SDS011;63774;45.292;11.784;2023-12-28T03:00:48;26.70;;;20.70;;
69551;SDS011;63774;45.292;11.784;2023-12-28T03:03:14;27.40;;;20.80;;
69551;SDS011;63774;45.292;11.784;2023-12-28T03:05:39;28.80;;;20.90;;
69551;SDS011;63774;45.292;11.784;2023-12-28T03:08:04;28.50;;;20.70;;
69551;SDS011;63774;45.292;11.784;2023-12-28T03:10:30;28.60;;;21.40;;
69551;SDS011;63774;45.292;11.784;2023-12-28T03:12:55;27.70;;;21.20;;
69551;SDS011;63774;45.292;11.784;2023-12-28T03:15:20;29.50;;;20.60;;
69551;SDS011;63774;45.292;11.784;2023-12-28T03:17:46;30.00;;;21.20;;
69551;SDS011;63774;45.292;11.784;2023-12-28T03:20:11;28.20;;;20.90;;
69551;SDS011;63774;45.292;11.784;2023-12-28T03:22:36;27.70;;;20.80;;
69551;SDS011;63774;45.292;11.784;2023-12-28T03:25:02;30.10;;;21.20;;
69551;SDS011;63774;45.292;11.784;2023-12-28T03:27:27;29.40;;;20.90;;
69551;SDS011;63774;45.292;11.784;2023-12-28T03:29:52;28.70;;;21.10;;
69551;SDS011;63774;45.292;11.784;2023-12-28T03:32:18;26.80;;;20.70;;
69551;SDS011;63774;45.292;11.784;2023-12-28T03:34:43;27.90;;;21.40;;
69551;SDS011;63774;45.292;11.784;2023-12-28T03:37:08;29.10;;;21.90;;
69551;SDS011;63774;45.292;11.784;2023-12-28T03:39:36;28.30;;;20.80;;
69551;SDS011;63774;45.292;11.784;2023-12-28T03:42:01;29.20;;;21.30;;
69551;SDS011;63774;45.292;11.784;2023-12-28T03:44:26;28.50;;;21.40;;
69551;SDS011;63774;45.292;11.784;2023-12-28T03:46:52;28.70;;;20.90;;
69551;SDS011;63774;45.292;11.784;2023-12-28T03:49:20;27.00;;;21.30;;
69551;SDS011;63774;45.292;11.784;2023-12-28T03:51:46;27.80;;;20.40;;
69551;SDS011;63774;45.292;11.784;2023-12-28T03:54:11;27.30;;;20.50;;
69551;SDS011;63774;45.292;11.784;2023-12-28T03:56:37;26.90;;;20.70;;
69551;SDS011;63774;45.292;11.784;2023-12-28T03:59:05;28.00;;;21.10;;
69551;SDS011;63774;45.292;11.784;2023-12-28T04:01:30;27.60;;;21.30;;
69551;SDS011;63774;45.292;11.784;2023-12-28T04:03:55;27.50;;;20.40;;
69551;SDS011;63774;45.292;11.784;2023-12-28T04:06:21;28.40;;;20.90;;
69551;SDS011;63774;45.292;11.784;2023-12-28T04:08:46;28.10;;;20.70;;
69551;SDS011;63774;45.292;11.784;2023-12-28T04:11:11;27.80;;;20.90;;
69551;SDS011;63774;45.292;11.784;2023-12-28T04:13:37;26.90;;;20.30;;
69551;SDS011;63774;45.292;11.784;2023-12-28T04:16:02;27.20;;;20.90;;
69551;SDS011;63774;45.292;11.784;2023-12-28T04:18:28;27.10;;;21.10;;
69551;SDS011;63774;45.292;11.784;2023-12-28T04:20:53;29.40;;;21.90;;
69551;SDS011;63774;45.292;11.784;2023-12-28T04:23:18;27.80;;;21.80;;
69551;SDS011;63774;45.292;11.784;2023-12-28T04:25:44;26.20;;;20.90;;
69551;SDS011;63774;45.292;11.784;2023-12-28T04:28:09;27.30;;;20.80;;
69551;SDS011;63774;45.292;11.784;2023-12-28T04:30:35;27.70;;;20.70;;
69551;SDS011;63774;45.292;11.784;2023-12-28T04:33:01;28.30;;;21.00;;
69551;SDS011;63774;45.292;11.784;2023-12-28T04:35:26;27.40;;;20.70;;
69551;SDS011;63774;45.292;11.784;2023-12-28T04:37:51;27.80;;;20.50;;
69551;SDS011;63774;45.292;11.784;2023-12-28T04:40:17;27.10;;;20.80;;
69551;SDS011;63774;45.292;11.784;2023-12-28T04:42:42;28.10;;;21.50;;
69551;SDS011;63774;45.292;11.784;2023-12-28T04:45:08;28.40;;;21.00;;
69551;SDS011;63774;45.292;11.784;2023-12-28T04:47:33;29.10;;;20.40;;
69551;SDS011;63774;45.292;11.784;2023-12-28T04:49:58;28.60;;;21.30;;
69551;SDS011;63774;45.292;11.784;2023-12-28T04:52:24;28.60;;;21.10;;
69551;SDS011;63774;45.292;11.784;2023-12-28T04:54:49;29.20;;;22.40;;
69551;SDS011;63774;45.292;11.784;2023-12-28T04:57:14;28.10;;;21.40;;
69551;SDS011;63774;45.292;11.784;2023-12-28T04:59:40;28.90;;;22.30;;
69551;SDS011;63774;45.292;11.784;2023-12-28T05:02:05;30.20;;;21.90;;
69551;SDS011;63774;45.292;11.784;2023-12-28T05:04:31;28.90;;;21.20;;
69551;SDS011;63774;45.292;11.784;2023-12-28T05:06:56;26.50;;;20.30;;
69551;SDS011;63774;45.292;11.784;2023-12-28T05:09:21;26.10;;;20.80;;
69551;SDS011;63774;45.292;11.784;2023-12-28T05:11:46;27.90;;;20.90;;
69551;SDS011;63774;45.292;11.784;2023-12-28T05:14:12;30.20;;;22.00;;
69551;SDS011;63774;45.292;11.784;2023-12-28T05:16:37;29.30;;;22.00;;
69551;SDS011;63774;45.292;11.784;2023-12-28T05:19:02;28.70;;;20.80;;
69551;SDS011;63774;45.292;11.784;2023-12-28T05:21:28;28.30;;;21.30;;
69551;SDS011;63774;45.292;11.784;2023-12-28T05:23:53;29.50;;;21.90;;
69551;SDS011;63774;45.292;11.784;2023-12-28T05:26:19;27.80;;;21.40;;
69551;SDS011;63774;45.292;11.784;2023-12-28T05:28:44;27.70;;;21.00;;
69551;SDS011;63774;45.292;11.784;2023-12-28T05:31:09;29.20;;;22.60;;
69551;SDS011;63774;45.292;11.784;2023-12-28T05:33:35;28.80;;;21.60;;
69551;SDS011;63774;45.292;11.784;2023-12-28T05:36:00;27.60;;;21.40;;
69551;SDS011;63774;45.292;11.784;2023-12-28T05:38:26;27.50;;;21.20;;
69551;SDS011;63774;45.292;11.784;2023-12-28T05:40:51;28.10;;;21.70;;
69551;SDS011;63774;45.292;11.784;2023-12-28T05:43:16;28.20;;;22.20;;
69551;SDS011;63774;45.292;11.784;2023-12-28T05:45:41;28.40;;;21.80;;
69551;SDS011;63774;45.292;11.784;2023-12-28T05:48:07;28.30;;;21.80;;
69551;SDS011;63774;45.292;11.784;2023-12-28T05:50:33;29.40;;;21.40;;
69551;SDS011;63774;45.292;11.784;2023-12-28T05:52:58;27.40;;;21.50;;
69551;SDS011;63774;45.292;11.784;2023-12-28T05:55:23;27.30;;;21.30;;
69551;SDS011;63774;45.292;11.784;2023-12-28T05:57:49;27.10;;;21.10;;
69551;SDS011;63774;45.292;11.784;2023-12-28T06:00:14;28.60;;;21.40;;
69551;SDS011;63774;45.292;11.784;2023-12-28T06:02:40;29.00;;;22.00;;
69551;SDS011;63774;45.292;11.784;2023-12-28T06:05:05;28.70;;;21.70;;
69551;SDS011;63774;45.292;11.784;2023-12-28T06:07:31;28.20;;;21.30;;
69551;SDS011;63774;45.292;11.784;2023-12-28T06:09:56;28.40;;;22.00;;
69551;SDS011;63774;45.292;11.784;2023-12-28T06:12:21;26.90;;;20.60;;
69551;SDS011;63774;45.292;11.784;2023-12-28T06:14:47;29.60;;;21.70;;
69551;SDS011;63774;45.292;11.784;2023-12-28T06:17:12;28.00;;;21.20;;
69551;SDS011;63774;45.292;11.784;2023-12-28T06:19:40;29.20;;;22.20;;
69551;SDS011;63774;45.292;11.784;2023-12-28T06:22:05;27.50;;;21.40;;
69551;SDS011;63774;45.292;11.784;2023-12-28T06:24:30;28.30;;;21.40;;
69551;SDS011;63774;45.292;11.784;2023-12-28T06:26:55;29.00;;;21.00;;
69551;SDS011;63774;45.292;11.784;2023-12-28T06:29:22;28.10;;;21.70;;
69551;SDS011;63774;45.292;11.784;2023-12-28T06:31:47;26.60;;;21.40;;
69551;SDS011;63774;45.292;11.784;2023-12-28T06:34:12;27.70;;;21.60;;
69551;SDS011;63774;45.292;11.784;2023-12-28T06:36:38;28.80;;;21.90;;
69551;SDS011;63774;45.292;11.784;2023-12-28T06:39:03;26.30;;;21.40;;
69551;SDS011;63774;45.292;11.784;2023-12-28T06:41:28;28.40;;;21.40;;
69551;SDS011;63774;45.292;11.784;2023-12-28T06:43:54;28.00;;;21.40;;
69551;SDS011;63774;45.292;11.784;2023-12-28T06:46:19;28.70;;;22.00;;
69551;SDS011;63774;45.292;11.784;2023-12-28T06:48:45;28.00;;;21.20;;
69551;SDS011;63774;45.292;11.784;2023-12-28T06:51:20;31.50;;;22.10;;
69551;SDS011;63774;45.292;11.784;2023-12-28T06:53:48;27.40;;;21.60;;
69551;SDS011;63774;45.292;11.784;2023-12-28T06:56:14;27.30;;;22.00;;
69551;SDS011;63774;45.292;11.784;2023-12-28T06:58:39;30.80;;;22.40;;
69551;SDS011;63774;45.292;11.784;2023-12-28T07:01:05;28.20;;;22.00;;
69551;SDS011;63774;45.292;11.784;2023-12-28T07:03:31;28.30;;;21.30;;
69551;SDS011;63774;45.292;11.784;2023-12-28T07:06:00;28.20;;;21.90;;
69551;SDS011;63774;45.292;11.784;2023-12-28T07:08:25;27.10;;;20.80;;
69551;SDS011;63774;45.292;11.784;2023-12-28T07:10:51;30.10;;;22.20;;
69551;SDS011;63774;45.292;11.784;2023-12-28T07:13:16;28.10;;;21.50;;
69551;SDS011;63774;45.292;11.784;2023-12-28T07:15:41;29.20;;;22.50;;
69551;SDS011;63774;45.292;11.784;2023-12-28T07:18:07;28.00;;;21.50;;
69551;SDS011;63774;45.292;11.784;2023-12-28T07:20:32;28.80;;;21.50;;
69551;SDS011;63774;45.292;11.784;2023-12-28T07:22:57;29.50;;;22.30;;
69551;SDS011;63774;45.292;11.784;2023-12-28T07:25:22;30.10;;;21.90;;
69551;SDS011;63774;45.292;11.784;2023-12-28T07:27:48;29.60;;;22.20;;
69551;SDS011;63774;45.292;11.784;2023-12-28T07:30:13;30.00;;;22.50;;
69551;SDS011;63774;45.292;11.784;2023-12-28T07:32:39;29.30;;;22.90;;
69551;SDS011;63774;45.292;11.784;2023-12-28T07:35:04;29.70;;;22.20;;
69551;SDS011;63774;45.292;11.784;2023-12-28T07:37:29;30.10;;;21.60;;
69551;SDS011;63774;45.292;11.784;2023-12-28T07:39:55;28.90;;;21.80;;
69551;SDS011;63774;45.292;11.784;2023-12-28T07:42:20;29.00;;;21.90;;
69551;SDS011;63774;45.292;11.784;2023-12-28T07:44:45;28.40;;;22.40;;
69551;SDS011;63774;45.292;11.784;2023-12-28T07:47:11;30.70;;;22.70;;
69551;SDS011;63774;45.292;11.784;2023-12-28T07:49:37;28.90;;;22.30;;
69551;SDS011;63774;45.292;11.784;2023-12-28T07:52:02;29.50;;;22.20;;
69551;SDS011;63774;45.292;11.784;2023-12-28T07:54:28;30.70;;;22.20;;
69551;SDS011;63774;45.292;11.784;2023-12-28T07:56:53;28.80;;;22.10;;
69551;SDS011;63774;45.292;11.784;2023-12-28T07:59:18;29.00;;;22.30;;
69551;SDS011;63774;45.292;11.784;2023-12-28T08:01:44;30.90;;;22.80;;
69551;SDS011;63774;45.292;11.784;2023-12-28T08:04:10;27.70;;;22.20;;
69551;SDS011;63774;45.292;11.784;2023-12-28T08:06:36;28.80;;;22.20;;
69551;SDS011;63774;45.292;11.784;2023-12-28T08:09:01;30.10;;;22.50;;
69551;SDS011;63774;45.292;11.784;2023-12-28T08:11:29;31.00;;;22.30;;
69551;SDS011;63774;45.292;11.784;2023-12-28T08:13:55;29.10;;;21.90;;
69551;SDS011;63774;45.292;11.784;2023-12-28T08:16:20;29.20;;;22.60;;
69551;SDS011;63774;45.292;11.784;2023-12-28T08:18:46;28.70;;;22.00;;
69551;SDS011;63774;45.292;11.784;2023-12-28T08:21:11;28.80;;;22.30;;
69551;SDS011;63774;45.292;11.784;2023-12-28T08:23:36;28.00;;;21.50;;
69551;SDS011;63774;45.292;11.784;2023-12-28T08:26:02;29.20;;;22.30;;
69551;SDS011;63774;45.292;11.784;2023-12-28T08:28:27;32.60;;;22.90;;
69551;SDS011;63774;45.292;11.784;2023-12-28T08:30:53;29.20;;;22.80;;
69551;SDS011;63774;45.292;11.784;2023-12-28T08:33:18;28.40;;;22.60;;
69551;SDS011;63774;45.292;11.784;2023-12-28T08:35:44;30.40;;;22.80;;
69551;SDS011;63774;45.292;11.784;2023-12-28T08:38:10;28.50;;;22.00;;
69551;SDS011;63774;45.292;11.784;2023-12-28T08:40:36;27.80;;;22.00;;
69551;SDS011;63774;45.292;11.784;2023-12-28T08:43:01;28.70;;;22.10;;
69551;SDS011;63774;45.292;11.784;2023-12-28T08:45:26;29.80;;;22.60;;
69551;SDS011;63774;45.292;11.784;2023-12-28T08:47:51;29.20;;;22.10;;
69551;SDS011;63774;45.292;11.784;2023-12-28T08:50:17;32.70;;;23.30;;
69551;SDS011;63774;45.292;11.784;2023-12-28T08:52:42;30.10;;;22.40;;
69551;SDS011;63774;45.292;11.784;2023-12-28T08:55:07;29.60;;;22.10;;
69551;SDS011;63774;45.292;11.784;2023-12-28T08:57:33;29.70;;;23.20;;
69551;SDS011;63774;45.292;11.784;2023-12-28T08:59:58;28.80;;;21.70;;
69551;SDS011;63774;45.292;11.784;2023-12-28T09:02:27;29.30;;;22.20;;
69551;SDS011;63774;45.292;11.784;2023-12-28T09:04:52;27.90;;;22.40;;
69551;SDS011;63774;45.292;11.784;2023-12-28T09:07:18;31.00;;;22.40;;
69551;SDS011;63774;45.292;11.784;2023-12-28T09:09:44;27.40;;;21.10;;
69551;SDS011;63774;45.292;11.784;2023-12-28T09:12:10;30.50;;;21.90;;
69551;SDS011;63774;45.292;11.784;2023-12-28T09:14:35;30.20;;;22.40;;
69551;SDS011;63774;45.292;11.784;2023-12-28T09:17:01;29.40;;;22.30;;
69551;SDS011;63774;45.292;11.784;2023-12-28T09:19:26;29.80;;;22.50;;
69551;SDS011;63774;45.292;11.784;2023-12-28T09:21:51;29.10;;;22.00;;
69551;SDS011;63774;45.292;11.784;2023-12-28T09:24:17;27.70;;;21.40;;
69551;SDS011;63774;45.292;11.784;2023-12-28T09:26:43;25.80;;;20.90;;
69551;SDS011;63774;45.292;11.784;2023-12-28T09:29:08;28.00;;;20.50;;
69551;SDS011;63774;45.292;11.784;2023-12-28T09:31:34;28.70;;;21.20;;
69551;SDS011;63774;45.292;11.784;2023-12-28T09:33:59;28.40;;;21.10;;
69551;SDS011;63774;45.292;11.784;2023-12-28T09:36:24;27.10;;;20.30;;
69551;SDS011;63774;45.292;11.784;2023-12-28T09:38:50;35.80;;;25.00;;
69551;SDS011;63774;45.292;11.784;2023-12-28T09:41:16;41.80;;;27.00;;
69551;SDS011;63774;45.292;11.784;2023-12-28T09:43:48;47.80;;;31.20;;
69551;SDS011;63774;45.292;11.784;2023-12-28T09:46:18;50.50;;;33.70;;
69551;SDS011;63774;45.292;11.784;2023-12-28T09:48:43;54.70;;;35.10;;
69551;SDS011;63774;45.292;11.784;2023-12-28T09:51:09;52.40;;;35.20;;
69551;SDS011;63774;45.292;11.784;2023-12-28T09:53:35;57.30;;;35.90;;
69551;SDS011;63774;45.292;11.784;2023-12-28T09:56:00;55.50;;;35.00;;
69551;SDS011;63774;45.292;11.784;2023-12-28T09:58:30;54.60;;;35.20;;
69551;SDS011;63774;45.292;11.784;2023-12-28T10:00:57;51.80;;;33.40;;
69551;SDS011;63774;45.292;11.784;2023-12-28T10:03:24;48.10;;;32.40;;
69551;SDS011;63774;45.292;11.784;2023-12-28T10:05:49;46.10;;;30.80;;
69551;SDS011;63774;45.292;11.784;2023-12-28T10:08:15;47.50;;;30.00;;
69551;SDS011;63774;45.292;11.784;2023-12-28T10:10:41;45.60;;;29.60;;
69551;SDS011;63774;45.292;11.784;2023-12-28T10:13:07;43.50;;;29.30;;
69551;SDS011;63774;45.292;11.784;2023-12-28T10:15:33;42.10;;;28.90;;
69551;SDS011;63774;45.292;11.784;2023-12-28T10:17:58;42.30;;;28.90;;
69551;SDS011;63774;45.292;11.784;2023-12-28T10:20:26;40.20;;;27.50;;
69551;SDS011;63774;45.292;11.784;2023-12-28T10:22:51;38.90;;;27.30;;
69551;SDS011;63774;45.292;11.784;2023-12-28T10:25:26;39.10;;;26.40;;
69551;SDS011;63774;45.292;11.784;2023-12-28T10:27:52;36.90;;;25.50;;
69551;SDS011;63774;45.292;11.784;2023-12-28T10:30:17;38.90;;;27.00;;
69551;SDS011;63774;45.292;11.784;2023-12-28T10:32:43;38.40;;;24.50;;
69551;SDS011;63774;45.292;11.784;2023-12-28T10:35:08;37.20;;;24.90;;
69551;SDS011;63774;45.292;11.784;2023-12-28T10:37:34;34.00;;;24.70;;
69551;SDS011;63774;45.292;11.784;2023-12-28T10:40:00;36.80;;;24.30;;
69551;SDS011;63774;45.292;11.784;2023-12-28T10:42:34;33.70;;;24.10;;
69551;SDS011;63774;45.292;11.784;2023-12-28T10:45:03;31.80;;;22.80;;
69551;SDS011;63774;45.292;11.784;2023-12-28T10:47:29;34.10;;;23.80;;
69551;SDS011;63774;45.292;11.784;2023-12-28T10:49:56;33.70;;;23.40;;
69551;SDS011;63774;45.292;11.784;2023-12-28T10:52:23;31.60;;;22.10;;
69551;SDS011;63774;45.292;11.784;2023-12-28T10:57:40;30.50;;;21.70;;
69551;SDS011;63774;45.292;11.784;2023-12-28T11:00:10;29.00;;;21.40;;
69551;SDS011;63774;45.292;11.784;2023-12-28T11:02:46;29.70;;;20.90;;
69551;SDS011;63774;45.292;11.784;2023-12-28T11:05:12;26.90;;;19.70;;
69551;SDS011;63774;45.292;11.784;2023-12-28T11:07:38;28.40;;;20.80;;
69551;SDS011;63774;45.292;11.784;2023-12-28T11:10:09;29.60;;;20.10;;
69551;SDS011;63774;45.292;11.784;2023-12-28T11:12:39;29.30;;;20.90;;
69551;SDS011;63774;45.292;11.784;2023-12-28T11:15:09;28.80;;;20.40;;
69551;SDS011;63774;45.292;11.784;2023-12-28T11:17:48;27.50;;;20.70;;
69551;SDS011;63774;45.292;11.784;2023-12-28T11:20:14;29.20;;;20.60;;
69551;SDS011;63774;45.292;11.784;2023-12-28T11:22:41;28.00;;;20.10;;
69551;SDS011;63774;45.292;11.784;2023-12-28T11:25:14;29.30;;;20.20;;
69551;SDS011;63774;45.292;11.784;2023-12-28T11:27:44;29.10;;;19.10;;
69551;SDS011;63774;45.292;11.784;2023-12-28T11:30:11;26.30;;;19.50;;
69551;SDS011;63774;45.292;11.784;2023-12-28T11:32:37;26.00;;;19.30;;
69551;SDS011;63774;45.292;11.784;2023-12-28T11:35:05;25.30;;;18.50;;
69551;SDS011;63774;45.292;11.784;2023-12-28T11:37:31;27.10;;;19.20;;
69551;SDS011;63774;45.292;11.784;2023-12-28T11:39:57;28.90;;;20.30;;
69551;SDS011;63774;45.292;11.784;2023-12-28T11:42:25;25.20;;;18.50;;
69551;SDS011;63774;45.292;11.784;2023-12-28T11:44:56;25.10;;;18.10;;
69551;SDS011;63774;45.292;11.784;2023-12-28T11:47:22;23.50;;;17.40;;
69551;SDS011;63774;45.292;11.784;2023-12-28T11:49:47;22.60;;;17.70;;
69551;SDS011;63774;45.292;11.784;2023-12-28T11:52:24;24.50;;;17.90;;
69551;SDS011;63774;45.292;11.784;2023-12-28T11:54:49;22.50;;;17.20;;
69551;SDS011;63774;45.292;11.784;2023-12-28T11:57:15;25.40;;;17.90;;
69551;SDS011;63774;45.292;11.784;2023-12-28T11:59:40;22.20;;;16.90;;
69551;SDS011;63774;45.292;11.784;2023-12-28T12:02:06;22.20;;;16.70;;
69551;SDS011;63774;45.292;11.784;2023-12-28T12:04:33;20.50;;;16.60;;
69551;SDS011;63774;45.292;11.784;2023-12-28T12:07:00;20.70;;;16.00;;
69551;SDS011;63774;45.292;11.784;2023-12-28T12:09:26;22.90;;;16.70;;
69551;SDS011;63774;45.292;11.784;2023-12-28T12:11:51;24.10;;;16.80;;
69551;SDS011;63774;45.292;11.784;2023-12-28T12:14:17;19.90;;;16.20;;
69551;SDS011;63774;45.292;11.784;2023-12-28T12:16:43;21.00;;;16.00;;
69551;SDS011;63774;45.292;11.784;2023-12-28T12:19:08;21.10;;;15.80;;
69551;SDS011;63774;45.292;11.784;2023-12-28T12:21:34;21.40;;;15.80;;
69551;SDS011;63774;45.292;11.784;2023-12-28T12:24:00;21.10;;;15.80;;
69551;SDS011;63774;45.292;11.784;2023-12-28T12:26:26;20.90;;;16.80;;
69551;SDS011;63774;45.292;11.784;2023-12-28T12:28:51;21.40;;;15.50;;
69551;SDS011;63774;45.292;11.784;2023-12-28T12:31:17;21.50;;;15.40;;
69551;SDS011;63774;45.292;11.784;2023-12-28T12:33:42;20.00;;;15.80;;
69551;SDS011;63774;45.292;11.784;2023-12-28T12:36:08;19.80;;;15.80;;
69551;SDS011;63774;45.292;11.784;2023-12-28T12:38:33;20.60;;;15.60;;
69551;SDS011;63774;45.292;11.784;2023-12-28T12:40:59;21.20;;;15.50;;
69551;SDS011;63774;45.292;11.784;2023-12-28T12:43:24;20.10;;;15.40;;
69551;SDS011;63774;45.292;11.784;2023-12-28T12:45:50;18.40;;;14.70;;
69551;SDS011;63774;45.292;11.784;2023-12-28T12:48:16;20.10;;;14.80;;
69551;SDS011;63774;45.292;11.784;2023-12-28T12:50:41;20.00;;;14.90;;
69551;SDS011;63774;45.292;11.784;2023-12-28T12:53:06;20.70;;;15.40;;
69551;SDS011;63774;45.292;11.784;2023-12-28T12:55:32;18.80;;;14.70;;
69551;SDS011;63774;45.292;11.784;2023-12-28T12:57:57;18.70;;;15.00;;
69551;SDS011;63774;45.292;11.784;2023-12-28T13:00:23;21.60;;;15.20;;
69551;SDS011;63774;45.292;11.784;2023-12-28T13:02:49;19.60;;;14.90;;
69551;SDS011;63774;45.292;11.784;2023-12-28T13:05:16;19.90;;;15.10;;
69551;SDS011;63774;45.292;11.784;2023-12-28T13:07:42;19.40;;;14.30;;
69551;SDS011;63774;45.292;11.784;2023-12-28T13:10:07;18.10;;;14.70;;
69551;SDS011;63774;45.292;11.784;2023-12-28T13:12:32;19.00;;;14.40;;
69551;SDS011;63774;45.292;11.784;2023-12-28T13:14:58;19.90;;;14.70;;
69551;SDS011;63774;45.292;11.784;2023-12-28T13:17:23;19.10;;;15.20;;
69551;SDS011;63774;45.292;11.784;2023-12-28T13:19:49;19.20;;;14.60;;
69551;SDS011;63774;45.292;11.784;2023-12-28T13:22:14;19.40;;;14.80;;
69551;SDS011;63774;45.292;11.784;2023-12-28T13:24:39;20.60;;;15.70;;
69551;SDS011;63774;45.292;11.784;2023-12-28T13:27:04;20.20;;;14.90;;
69551;SDS011;63774;45.292;11.784;2023-12-28T13:29:30;19.00;;;14.90;;
69551;SDS011;63774;45.292;11.784;2023-12-28T13:31:55;20.60;;;15.50;;
69551;SDS011;63774;45.292;11.784;2023-12-28T13:34:20;21.30;;;15.20;;
69551;SDS011;63774;45.292;11.784;2023-12-28T13:36:46;20.90;;;15.70;;
69551;SDS011;63774;45.292;11.784;2023-12-28T13:39:11;21.50;;;16.50;;
69551;SDS011;63774;45.292;11.784;2023-12-28T13:41:39;22.20;;;16.90;;
69551;SDS011;63774;45.292;11.784;2023-12-28T13:44:05;22.80;;;16.70;;
69551;SDS011;63774;45.292;11.784;2023-12-28T13:46:35;22.30;;;16.10;;
69551;SDS011;63774;45.292;11.784;2023-12-28T13:49:00;22.20;;;16.80;;
69551;SDS011;63774;45.292;11.784;2023-12-28T13:51:28;24.40;;;17.20;;
69551;SDS011;63774;45.292;11.784;2023-12-28T13:53:54;24.90;;;16.80;;
69551;SDS011;63774;45.292;11.784;2023-12-28T13:56:19;22.10;;;16.00;;
69551;SDS011;63774;45.292;11.784;2023-12-28T13:58:45;22.40;;;17.00;;
69551;SDS011;63774;45.292;11.784;2023-12-28T14:01:10;25.40;;;16.90;;
69551;SDS011;63774;45.292;11.784;2023-12-28T14:03:35;22.30;;;16.10;;